createdAt,value
2023-02-17T00:01:32.209Z,43.22
2023-02-17T00:04:00.125Z,43.60
2023-02-17T00:06:29.790Z,44.53
2023-02-17T00:08:58.417Z,45.17
2023-02-17T00:11:27.113Z,42.72
2023-02-17T00:13:56.278Z,42.13
2023-02-17T00:16:26.470Z,44.72
2023-02-17T00:18:59.078Z,43.22
2023-02-17T00:21:30.107Z,44.20
2023-02-17T00:23:59.318Z,42.15
2023-02-17T00:26:26.737Z,41.70
2023-02-17T00:28:54.663Z,41.92
2023-02-17T00:31:25.204Z,41.40
2023-02-17T00:33:56.006Z,40.70
2023-02-17T00:36:24.140Z,42.72
2023-02-17T00:38:51.825Z,40.03
2023-02-17T00:41:22.569Z,40.63
2023-02-17T00:43:50.404Z,38.75
2023-02-17T00:46:18.693Z,38.25
2023-02-17T00:48:46.602Z,39.60
2023-02-17T00:51:14.683Z,37.95
2023-02-17T00:53:42.273Z,37.63
2023-02-17T00:56:10.302Z,36.50
2023-02-17T00:58:38.417Z,37.10
2023-02-17T01:01:05.867Z,36.05
2023-02-17T01:03:33.632Z,36.00
2023-02-17T01:06:09.884Z,34.67
2023-02-17T01:08:37.580Z,36.00
2023-02-17T01:11:05.044Z,34.72
2023-02-17T01:13:32.212Z,33.88
2023-02-17T01:15:59.525Z,35.25
2023-02-17T01:18:26.682Z,34.80
2023-02-17T01:20:54.057Z,34.88
2023-02-17T01:23:21.608Z,32.67
2023-02-17T01:25:51.057Z,35.38
2023-02-17T01:28:21.726Z,35.88
2023-02-17T01:30:49.871Z,34.15
2023-02-17T01:33:17.220Z,34.90
2023-02-17T01:35:44.497Z,32.50
2023-02-17T01:38:11.675Z,33.15
2023-02-17T01:40:46.957Z,33.65
2023-02-17T01:45:53.615Z,30.77
2023-02-17T01:48:29.304Z,32.25
2023-02-17T01:51:03.065Z,31.63
2023-02-17T01:53:40.390Z,31.98
2023-02-17T01:56:08.216Z,32.00
2023-02-17T01:58:35.647Z,32.17
2023-02-17T02:01:06.483Z,32.15
2023-02-17T02:03:36.385Z,31.30
2023-02-17T02:06:11.409Z,33.75
2023-02-17T02:08:55.260Z,33.28
2023-02-17T02:11:22.419Z,32.28
2023-02-17T02:13:50.923Z,31.45
2023-02-17T02:16:27.608Z,32.00
2023-02-17T02:19:15.417Z,32.08
2023-02-17T02:21:54.177Z,32.58
2023-02-17T02:24:43.962Z,30.58
2023-02-17T02:27:20.021Z,28.67
2023-02-17T02:29:56.379Z,29.15
2023-02-17T02:32:38.808Z,30.90
2023-02-17T02:35:05.976Z,29.00
2023-02-17T02:38:07.259Z,29.75
2023-02-17T02:40:41.462Z,29.77
2023-02-17T02:43:08.645Z,29.75
2023-02-17T02:45:37.952Z,27.98
2023-02-17T02:48:05.229Z,28.45
2023-02-17T02:51:07.415Z,30.17
2023-02-17T02:53:39.506Z,31.02
2023-02-17T02:56:17.485Z,30.58
2023-02-17T02:59:04.891Z,30.52
2023-02-17T03:01:49.852Z,30.45
2023-02-17T03:04:17.121Z,31.13
2023-02-17T03:07:25.299Z,29.48
2023-02-17T03:09:56.018Z,29.27
2023-02-17T03:12:24.201Z,28.75
2023-02-17T03:14:56.258Z,29.48
2023-02-17T03:17:23.586Z,29.25
2023-02-17T03:19:51.305Z,29.42
2023-02-17T03:22:24.314Z,29.83
2023-02-17T03:24:52.094Z,28.92
2023-02-17T03:27:19.411Z,29.85
2023-02-17T03:29:46.767Z,31.48
2023-02-17T03:32:14.172Z,28.92
2023-02-17T03:34:41.398Z,30.33
2023-02-17T03:37:08.598Z,30.85
2023-02-17T03:39:35.770Z,29.35
2023-02-17T03:42:03.535Z,30.05
2023-02-17T03:44:30.699Z,29.98
2023-02-17T03:46:58.021Z,29.10
2023-02-17T03:49:25.404Z,27.73
2023-02-17T03:51:52.660Z,30.52
2023-02-17T03:54:19.864Z,27.75
2023-02-17T03:56:47.086Z,28.98
2023-02-17T03:59:14.308Z,27.58
2023-02-17T04:01:41.556Z,27.95
2023-02-17T04:04:08.777Z,28.75
2023-02-17T04:06:36.310Z,29.55
2023-02-17T04:09:04.398Z,27.35
2023-02-17T04:11:31.731Z,26.77
2023-02-17T04:13:58.970Z,24.92
2023-02-17T04:16:28.245Z,24.45
2023-02-17T04:18:55.553Z,26.33
2023-02-17T04:21:22.639Z,25.17
2023-02-17T04:23:50.132Z,24.85
2023-02-17T04:26:17.311Z,25.85
2023-02-17T04:28:44.703Z,23.70
2023-02-17T04:31:11.885Z,25.33
2023-02-17T04:33:39.653Z,24.42
2023-02-17T04:36:07.132Z,22.65
2023-02-17T04:38:35.513Z,23.40
2023-02-17T04:41:03.080Z,24.30
2023-02-17T04:43:30.805Z,22.42
2023-02-17T04:45:58.590Z,24.38
2023-02-17T04:48:27.323Z,21.85
2023-02-17T04:50:54.482Z,22.50
2023-02-17T04:53:21.835Z,22.70
2023-02-17T04:55:53.786Z,20.90
2023-02-17T04:58:21.328Z,21.58
2023-02-17T05:00:50.487Z,20.30
2023-02-17T05:03:18.604Z,21.00
2023-02-17T05:05:46.224Z,20.77
2023-02-17T05:08:14.332Z,21.17
2023-02-17T05:10:41.642Z,19.77
2023-02-17T05:13:09.007Z,19.60
2023-02-17T05:15:36.435Z,22.83
2023-02-17T05:18:03.801Z,21.30
2023-02-17T05:20:31.726Z,20.55
2023-02-17T05:22:58.936Z,19.83
2023-02-17T05:25:26.191Z,20.85
2023-02-17T05:27:53.449Z,19.25
2023-02-17T05:30:20.606Z,19.95
2023-02-17T05:32:47.936Z,20.63
2023-02-17T05:35:15.156Z,19.50
2023-02-17T05:37:42.458Z,19.63
2023-02-17T05:40:10.067Z,21.00
2023-02-17T05:42:37.465Z,18.92
2023-02-17T05:45:08.648Z,18.48
2023-02-17T05:47:35.864Z,19.65
2023-02-17T05:50:04.160Z,19.90
2023-02-17T05:52:31.448Z,20.23
2023-02-17T05:54:58.758Z,18.85
2023-02-17T05:57:26.128Z,20.88
2023-02-17T05:59:53.348Z,21.63
2023-02-17T06:02:21.445Z,19.95
2023-02-17T06:04:48.758Z,21.98
2023-02-17T06:07:15.884Z,21.38
2023-02-17T06:09:43.115Z,23.00
2023-02-17T06:12:10.372Z,22.42
2023-02-17T06:14:37.659Z,23.38
2023-02-17T06:17:04.878Z,21.25
2023-02-17T06:19:32.032Z,23.05
2023-02-17T06:21:59.660Z,22.60
2023-02-17T06:24:26.800Z,20.40
2023-02-17T06:26:54.180Z,21.63
2023-02-17T06:29:21.395Z,22.63
2023-02-17T06:31:48.687Z,22.35
2023-02-17T06:34:15.851Z,22.33
2023-02-17T06:36:43.104Z,23.02
2023-02-17T06:39:11.580Z,22.08
2023-02-17T06:41:38.595Z,21.80
2023-02-17T06:44:05.934Z,22.52
2023-02-17T06:46:33.169Z,21.63
2023-02-17T06:49:01.722Z,21.23
2023-02-17T06:51:29.326Z,22.88
2023-02-17T06:53:56.755Z,22.63
2023-02-17T06:56:26.014Z,22.25
2023-02-17T06:58:53.264Z,22.25
2023-02-17T07:01:23.862Z,23.42
2023-02-17T07:03:51.171Z,22.50
2023-02-17T07:06:19.182Z,21.15
2023-02-17T07:08:46.536Z,22.25
2023-02-17T07:11:15.263Z,22.40
2023-02-17T07:13:43.456Z,22.75
2023-02-17T07:16:13.722Z,19.75
2023-02-17T07:18:41.143Z,22.85
2023-02-17T07:21:10.120Z,21.60
2023-02-17T07:23:39.865Z,22.50
2023-02-17T07:26:12.190Z,21.95
2023-02-17T07:28:40.999Z,22.75
2023-02-17T07:31:14.426Z,19.60
2023-02-17T07:33:42.703Z,21.10
2023-02-17T07:36:12.480Z,23.38
2023-02-17T07:38:40.801Z,23.17
2023-02-17T07:41:22.326Z,22.60
2023-02-17T07:43:49.727Z,23.33
2023-02-17T07:46:17.620Z,22.05
2023-02-17T07:48:45.537Z,23.52
2023-02-17T07:51:17.030Z,21.85
2023-02-17T07:53:44.532Z,21.60
2023-02-17T07:56:14.459Z,24.30
2023-02-17T07:58:43.706Z,26.23
2023-02-17T08:01:16.882Z,23.05
2023-02-17T08:03:45.196Z,24.33
2023-02-17T08:06:15.144Z,25.20
2023-02-17T08:09:01.060Z,23.35
2023-02-17T08:11:48.990Z,21.88
2023-02-17T08:14:17.597Z,23.63
2023-02-17T08:16:45.240Z,25.30
2023-02-17T08:19:12.605Z,26.52
2023-02-17T08:21:39.866Z,24.58
2023-02-17T08:24:07.647Z,23.33
2023-02-17T08:26:35.198Z,25.75
2023-02-17T08:29:02.298Z,27.48
2023-02-17T08:31:34.751Z,23.10
2023-02-17T08:34:07.058Z,22.70
2023-02-17T08:36:37.823Z,23.55
2023-02-17T08:39:07.335Z,23.50
2023-02-17T08:41:37.571Z,22.00
2023-02-17T08:44:12.689Z,23.75
2023-02-17T08:46:41.371Z,22.13
2023-02-17T08:49:08.988Z,21.90
2023-02-17T08:51:37.620Z,19.38
2023-02-17T08:54:07.903Z,23.02
2023-02-17T08:56:37.216Z,21.23
2023-02-17T08:59:06.393Z,20.60
2023-02-17T09:01:34.106Z,22.33
2023-02-17T09:04:04.399Z,20.40
2023-02-17T09:07:00.513Z,17.02
2023-02-17T09:11:57.718Z,17.00
2023-02-17T09:14:24.974Z,17.27
2023-02-17T09:16:52.822Z,17.65
2023-02-17T09:19:21.342Z,16.45
2023-02-17T09:21:49.066Z,18.02
2023-02-17T09:24:17.889Z,16.65
2023-02-17T09:26:45.176Z,16.05
2023-02-17T09:29:12.787Z,16.10
2023-02-17T09:31:40.229Z,14.32
2023-02-17T09:34:07.446Z,15.93
2023-02-17T09:36:39.623Z,14.77
2023-02-17T09:39:07.749Z,15.30
2023-02-17T09:41:50.287Z,15.00
2023-02-17T09:44:23.558Z,16.40
2023-02-17T09:47:14.242Z,14.18
2023-02-17T09:49:50.032Z,15.65
2023-02-17T09:52:23.009Z,14.88
2023-02-17T09:54:58.183Z,15.68
2023-02-17T09:57:29.774Z,15.30
2023-02-17T10:00:12.890Z,14.18
2023-02-17T10:03:03.405Z,14.38
2023-02-17T10:05:36.857Z,14.38
2023-02-17T10:08:13.428Z,14.95
2023-02-17T10:11:04.556Z,15.30
2023-02-17T10:13:34.718Z,13.50
2023-02-17T10:16:07.442Z,14.13
2023-02-17T10:18:50.685Z,14.45
2023-02-17T10:21:22.631Z,12.52
2023-02-17T10:23:51.850Z,12.75
2023-02-17T10:27:00.575Z,13.18
2023-02-17T10:29:39.644Z,13.60
2023-02-17T10:32:20.146Z,12.35
2023-02-17T10:35:14.176Z,15.52
2023-02-17T10:37:50.768Z,12.35
2023-02-17T10:40:22.095Z,13.77
2023-02-17T10:42:55.171Z,13.80
2023-02-17T10:45:32.996Z,11.82
2023-02-17T10:48:07.630Z,14.65
2023-02-17T10:50:37.368Z,13.50
2023-02-17T10:53:17.902Z,12.20
2023-02-17T10:55:54.850Z,15.68
2023-02-17T10:58:51.548Z,12.75
2023-02-17T11:01:19.443Z,11.90
2023-02-17T11:03:46.922Z,12.13
2023-02-17T11:06:22.916Z,10.27
2023-02-17T11:08:58.911Z,12.05
2023-02-17T11:11:35.650Z,10.63
2023-02-17T11:14:11.733Z,11.38
2023-02-17T11:17:00.681Z,13.32
2023-02-17T11:19:36.771Z,11.10
2023-02-17T11:22:07.162Z,12.65
2023-02-17T11:24:38.819Z,11.30
2023-02-17T11:27:10.792Z,12.07
2023-02-17T11:29:38.765Z,11.80
2023-02-17T11:32:09.292Z,12.35
2023-02-17T11:34:39.801Z,12.07
2023-02-17T11:37:09.768Z,12.98
2023-02-17T11:39:41.004Z,12.38
2023-02-17T11:42:21.205Z,13.18
2023-02-17T11:44:48.717Z,13.35
2023-02-17T11:47:43.070Z,13.93
2023-02-17T11:50:13.102Z,14.02
2023-02-17T11:53:18.005Z,15.02
2023-02-17T11:56:02.203Z,14.70
2023-02-17T11:58:29.301Z,12.52
2023-02-17T12:01:11.889Z,13.18
2023-02-17T12:04:16.073Z,13.90
2023-02-17T12:07:11.356Z,12.77
2023-02-17T12:09:44.751Z,12.73
2023-02-17T12:12:26.833Z,13.02
2023-02-17T12:15:12.165Z,14.85
2023-02-17T12:18:13.808Z,14.43
2023-02-17T12:20:59.662Z,13.13
2023-02-17T12:23:52.955Z,13.63
2023-02-17T12:26:42.300Z,10.18
2023-02-17T12:29:33.147Z,12.32
2023-02-17T12:32:21.637Z,12.88
2023-02-17T12:35:14.063Z,10.98
2023-02-17T12:37:53.472Z,10.93
2023-02-17T12:40:47.447Z,12.27
2023-02-17T12:43:22.938Z,9.75
2023-02-17T12:45:52.826Z,14.02
2023-02-17T12:48:36.125Z,12.38
2023-02-17T12:51:09.564Z,13.18
2023-02-17T12:53:48.910Z,11.63
2023-02-17T12:56:48.897Z,9.75
2023-02-17T12:59:24.320Z,10.15
2023-02-17T13:01:58.151Z,10.48
2023-02-17T13:04:27.111Z,10.43
2023-02-17T13:07:11.143Z,8.60
2023-02-17T13:09:41.864Z,9.95
2023-02-17T13:12:11.589Z,9.02
2023-02-17T13:14:47.420Z,10.10
2023-02-17T13:17:52.296Z,8.40
2023-02-17T13:20:19.309Z,8.98
2023-02-17T13:22:49.664Z,9.38
2023-02-17T13:25:46.504Z,7.68
2023-02-17T13:28:20.472Z,6.78
2023-02-17T13:30:52.545Z,6.10
2023-02-17T13:33:22.903Z,8.35
2023-02-17T13:35:50.252Z,6.88
2023-02-17T13:38:32.796Z,6.97
2023-02-17T13:41:02.408Z,5.65
2023-02-17T13:43:31.614Z,7.13
2023-02-17T13:46:02.132Z,7.15
2023-02-17T13:48:32.820Z,6.65
2023-02-17T13:51:01.456Z,6.43
2023-02-17T13:53:37.918Z,5.30
2023-02-17T13:56:31.905Z,4.07
2023-02-17T13:59:30.834Z,4.65
2023-02-17T14:02:01.070Z,4.95
2023-02-17T14:04:31.183Z,5.25
2023-02-17T14:07:05.126Z,5.10
2023-02-17T14:09:34.110Z,4.22
2023-02-17T14:12:08.696Z,5.60
2023-02-17T14:14:38.643Z,4.60
2023-02-17T14:17:15.340Z,4.45
2023-02-17T14:19:45.909Z,4.05
2023-02-17T14:22:32.105Z,3.90
2023-02-17T14:25:06.739Z,4.90
2023-02-17T14:27:53.203Z,4.55
2023-02-17T14:30:35.336Z,5.05
2023-02-17T14:33:06.187Z,4.30
2023-02-17T14:35:35.435Z,4.15
2023-02-17T14:38:20.719Z,6.32
2023-02-17T14:40:48.290Z,4.80
2023-02-17T14:43:16.089Z,5.18
2023-02-17T14:45:43.243Z,4.93
2023-02-17T14:48:13.452Z,4.03
2023-02-17T14:50:44.772Z,5.13
2023-02-17T14:53:40.999Z,4.90
2023-02-17T14:58:42.784Z,4.72
2023-02-17T15:01:21.447Z,4.80
2023-02-17T15:03:50.936Z,4.50
2023-02-17T15:06:34.272Z,6.30
2023-02-17T15:09:01.606Z,4.20
2023-02-17T15:11:32.825Z,5.78
2023-02-17T15:14:02.266Z,4.32
2023-02-17T15:16:32.589Z,4.10
2023-02-17T15:18:59.925Z,4.38
2023-02-17T15:21:28.750Z,3.85
2023-02-17T15:23:57.455Z,4.40
2023-02-17T15:26:25.471Z,3.67
2023-02-17T15:28:52.931Z,3.40
2023-02-17T15:31:24.709Z,4.80
2023-02-17T15:33:58.529Z,4.22
2023-02-17T15:36:27.221Z,3.22
2023-02-17T15:38:54.906Z,2.63
2023-02-17T15:41:26.318Z,3.33
2023-02-17T15:43:55.542Z,2.70
2023-02-17T15:46:31.004Z,2.45
2023-02-17T15:48:58.491Z,2.55
2023-02-17T15:51:29.072Z,4.68
2023-02-17T15:53:56.083Z,3.47
2023-02-17T15:56:27.339Z,2.55
2023-02-17T15:58:58.431Z,1.95
2023-02-17T16:01:34.146Z,2.45
2023-02-17T16:04:02.032Z,4.70
2023-02-17T16:06:29.913Z,3.08
2023-02-17T16:08:59.093Z,3.70
2023-02-17T16:11:27.790Z,1.88
2023-02-17T16:13:55.502Z,3.30
2023-02-17T16:16:26.350Z,3.30
2023-02-17T16:18:53.782Z,2.78
2023-02-17T16:21:21.353Z,2.53
2023-02-17T16:23:48.828Z,3.25
2023-02-17T16:26:27.294Z,2.60
2023-02-17T16:28:54.901Z,2.58
2023-02-17T16:31:23.716Z,3.85
2023-02-17T16:33:51.958Z,3.85
2023-02-17T16:36:21.465Z,3.50
2023-02-17T16:38:53.562Z,3.00
2023-02-17T16:41:21.379Z,5.28
2023-02-17T16:43:48.757Z,4.07
2023-02-17T16:46:31.449Z,3.08
2023-02-17T16:49:00.408Z,3.72
2023-02-17T16:51:28.064Z,3.80
2023-02-17T16:53:55.273Z,6.97
2023-02-17T16:56:28.990Z,6.50
2023-02-17T16:58:56.318Z,5.00
2023-02-17T17:01:24.395Z,6.32
2023-02-17T17:03:55.025Z,8.70
2023-02-17T17:06:29.345Z,5.18
2023-02-17T17:08:57.329Z,4.90
2023-02-17T17:11:26.325Z,5.28
2023-02-17T17:13:53.688Z,3.75
2023-02-17T17:16:31.147Z,75.00
2023-02-17T17:18:59.461Z,31.55
2023-02-17T17:21:29.479Z,16.55
2023-02-17T17:23:56.889Z,53.80
2023-02-17T17:26:26.393Z,53.42
2023-02-17T17:28:54.753Z,154.15
2023-02-17T17:31:23.367Z,28.40
2023-02-17T17:33:56.895Z,16.90
2023-02-17T17:36:30.436Z,11.38
2023-02-17T17:38:59.391Z,10.27
2023-02-17T17:41:29.026Z,10.45
2023-02-17T17:43:58.271Z,10.38
2023-02-17T17:46:31.846Z,4.78
2023-02-17T17:49:00.764Z,14.07
2023-02-17T17:51:33.688Z,15.10
2023-02-17T17:54:01.567Z,9.52
2023-02-17T17:56:31.536Z,11.30
2023-02-17T17:59:01.206Z,15.32
2023-02-17T18:01:30.579Z,33.42
2023-02-17T18:03:59.856Z,33.80
2023-02-17T18:06:31.505Z,26.25
2023-02-17T18:09:05.224Z,18.13
2023-02-17T18:11:33.703Z,14.52
2023-02-17T18:14:05.599Z,10.07
2023-02-17T18:16:34.293Z,9.70
2023-02-17T18:19:04.947Z,11.93
2023-02-17T18:21:32.134Z,3.70
2023-02-17T18:23:59.417Z,6.18
2023-02-17T18:26:29.496Z,6.47
2023-02-17T18:28:57.930Z,5.90
2023-02-17T18:31:29.701Z,4.57
2023-02-17T18:33:57.385Z,3.88
2023-02-17T18:36:27.353Z,5.63
2023-02-17T18:38:54.905Z,3.55
2023-02-17T18:41:29.670Z,4.03
2023-02-17T18:43:58.549Z,4.32
2023-02-17T18:46:27.284Z,4.47
2023-02-17T18:48:55.707Z,3.17
2023-02-17T18:51:24.364Z,3.03
2023-02-17T18:53:52.506Z,5.03
2023-02-17T18:56:23.837Z,7.78
2023-02-17T18:58:53.296Z,7.45
2023-02-17T19:01:24.336Z,5.97
2023-02-17T19:03:52.335Z,5.45
2023-02-17T19:06:23.254Z,3.55
2023-02-17T19:08:52.643Z,3.53
2023-02-17T19:11:22.157Z,7.05
2023-02-17T19:13:49.773Z,5.60
2023-02-17T19:16:21.915Z,3.35
2023-02-17T19:18:49.403Z,3.53
2023-02-17T19:21:17.009Z,3.75
2023-02-17T19:23:46.378Z,4.15
2023-02-17T19:26:14.727Z,4.35
2023-02-17T19:28:42.907Z,4.28
2023-02-17T19:31:16.590Z,4.85
2023-02-17T19:33:45.211Z,3.10
2023-02-17T19:36:18.637Z,4.22
2023-02-17T19:38:47.386Z,4.60
2023-02-17T19:41:15.596Z,4.10
2023-02-17T19:43:43.832Z,5.07
2023-02-17T19:46:15.826Z,3.95
2023-02-17T19:48:43.083Z,4.55
2023-02-17T19:51:14.091Z,4.75
2023-02-17T19:53:43.340Z,4.25
2023-02-17T19:56:25.265Z,3.70
2023-02-17T19:58:53.170Z,4.00
2023-02-17T20:01:23.970Z,4.50
2023-02-17T20:03:52.031Z,4.18
2023-02-17T20:06:22.157Z,3.70
2023-02-17T20:08:55.985Z,6.50
2023-02-17T20:11:23.403Z,4.57
2023-02-17T20:13:50.690Z,4.47
2023-02-17T20:16:18.969Z,4.07
2023-02-17T20:18:48.630Z,4.80
2023-02-17T20:21:18.799Z,4.95
2023-02-17T20:23:46.253Z,5.40
2023-02-17T20:26:17.702Z,3.25
2023-02-17T20:28:45.414Z,5.18
2023-02-17T20:31:16.010Z,4.32
2023-02-17T20:33:43.494Z,6.43
2023-02-17T20:36:12.237Z,3.15
2023-02-17T20:38:41.969Z,3.42
2023-02-17T20:41:10.401Z,3.75
2023-02-17T20:43:38.920Z,4.30
2023-02-17T20:46:07.409Z,3.88
2023-02-17T20:48:34.967Z,4.00
2023-02-17T20:51:04.344Z,4.20
2023-02-17T20:53:31.818Z,4.15
2023-02-17T20:55:59.058Z,4.38
2023-02-17T20:58:30.631Z,5.95
2023-02-17T21:00:58.031Z,4.95
2023-02-17T21:03:25.541Z,5.28
2023-02-17T21:05:52.707Z,3.45
2023-02-17T21:08:19.924Z,3.90
2023-02-17T21:10:47.062Z,3.33
2023-02-17T21:13:16.932Z,3.58
2023-02-17T21:15:44.236Z,3.47
2023-02-17T21:18:11.448Z,4.05
2023-02-17T21:20:38.545Z,4.00
2023-02-17T21:23:06.267Z,4.05
2023-02-17T21:25:33.668Z,3.45
2023-02-17T21:28:01.107Z,6.40
2023-02-17T21:30:28.606Z,3.63
2023-02-17T21:32:56.885Z,3.63
2023-02-17T21:35:24.042Z,6.65
2023-02-17T21:37:51.501Z,6.53
2023-02-17T21:40:18.799Z,3.63
2023-02-17T21:43:04.385Z,4.13
2023-02-17T21:45:38.993Z,4.78
2023-02-17T21:48:07.738Z,3.08
2023-02-17T21:50:37.940Z,5.05
2023-02-17T21:53:05.478Z,4.88
2023-02-17T21:55:33.527Z,3.33
2023-02-17T21:58:02.848Z,3.42
2023-02-17T22:00:30.328Z,5.07
2023-02-17T22:02:57.639Z,3.90
2023-02-17T22:05:24.760Z,3.13
2023-02-17T22:07:51.933Z,6.57
2023-02-17T22:10:19.125Z,3.47
2023-02-17T22:12:46.355Z,4.32
2023-02-17T22:15:16.302Z,4.20
2023-02-17T22:17:44.213Z,5.22
2023-02-17T22:20:12.010Z,4.22
2023-02-17T22:22:39.184Z,6.15
2023-02-17T22:25:06.843Z,4.07
2023-02-17T22:27:34.246Z,4.47
2023-02-17T22:30:01.675Z,5.60
2023-02-17T22:32:28.920Z,3.30
2023-02-17T22:34:56.289Z,5.32
2023-02-17T22:37:23.507Z,4.43
2023-02-17T22:39:56.429Z,4.35
2023-02-17T22:42:24.719Z,4.82
2023-02-17T22:44:52.021Z,3.90
2023-02-17T22:47:19.445Z,5.97
2023-02-17T22:49:46.938Z,5.43
2023-02-17T22:52:14.627Z,4.28
2023-02-17T22:54:44.606Z,3.45
2023-02-17T22:57:11.679Z,3.70
2023-02-17T22:59:38.842Z,3.50
2023-02-17T23:02:06.059Z,5.30
2023-02-17T23:04:33.346Z,4.07
2023-02-17T23:07:00.729Z,5.75
2023-02-17T23:09:27.981Z,3.35
2023-02-17T23:11:55.210Z,3.70
2023-02-17T23:14:33.357Z,2.55
2023-02-17T23:17:03.591Z,4.95
2023-02-17T23:19:31.171Z,3.53
2023-02-17T23:22:01.807Z,4.72
2023-02-17T23:24:29.543Z,4.43
2023-02-17T23:27:00.709Z,6.03
2023-02-17T23:29:31.481Z,5.35
2023-02-17T23:31:59.553Z,5.75
2023-02-17T23:34:28.704Z,3.63
2023-02-17T23:36:56.095Z,3.90
2023-02-17T23:39:23.323Z,2.92
2023-02-17T23:41:50.818Z,6.53
2023-02-17T23:44:21.403Z,4.60
2023-02-17T23:46:48.548Z,3.63
2023-02-17T23:49:17.566Z,6.50
2023-02-17T23:51:47.053Z,3.53
2023-02-17T23:54:14.873Z,4.75
2023-02-17T23:56:42.727Z,3.70
2023-02-17T23:59:10.247Z,3.55
